Airfield :
LOGIN :

Register | Disclaimer

   EN    FR    IT 

 










Legend :    VFR   Marginal VFR   IFR   Intensive IFR   Very Intensive IFR
Visi :
Ceiling :
>= 8 km
>= 3000ft
5 to 8 km
1000 to 3000 ft
1500m to 5 km
500 to 1000 ft
800 to 1500m
200 to 500 ft
< 800m
< 200 ft
Symbols :   Thunderstorms  Fog  Heavy snow  Heavy precipitations  Wind > 20 kt
SIGMETs :     Misc.  Thunderstorms  Icing  Turbulence  Mountain Waves  Volcanic Ashes






- Airport Elevation : 313 ft
- IATA code : LEH


LFOH - Le Havre Octeville

CURRENT METAR :
  • 172330Z AUTO 21010KT 170V250 9999 FEW018 BKN100 13/11 Q1005

EXPIRED METARs :
  • 172300Z AUTO 21011KT 180V240 CAVOK 13/11 Q1005
  • 172230Z AUTO 21011KT 180V240 CAVOK 13/11 Q1006
  • 172200Z AUTO 21013KT 190V250 9999 FEW016 OVC080 13/11 Q1006
  • 172130Z AUTO 21012KT 190V250 9999 FEW017 BKN094 14/11 Q1006
  • 172100Z AUTO 22013KT CAVOK 14/11 Q1006

TAF TAF LFOH
Valid from the 17 at 12:00 until the 18 at 12:00 UTC


171100Z 1712/1812 20013KT 9999 SCT020
TEMPO 1714/1720 4000 SHRA BKN017TCU
TEMPO 1803/1812 25025G40KT 2000 SHRA BKN015CB
PROB30
TEMPO 1803/1812 TSRA
ATIS : +33 2 35 54 64 93



MET'MAP, your aeronautical weather chart ! - Copyright ORBIFLY December 2007 - Disclaimer

ORBIFLY MET'MAP TEAM :

Programming & Development : Alexandra Zaïnal
Concept & Development : Baudouin d'Aumeries
Co-Development & Prog : Marc-Olivier Méhu
Technical & hardware support : Manuel Goepfert

Contact : metmap@orbifly.com




SOURCES & CREDITS :

   NOAA